sensor_id;sensor_type;location;lat;lon;timestamp;pressure;altitude;pressure_sealevel;temperature;humidity
79250;BME280;68679;51.030;7.584;2023-05-29T00:01:08;99308.78;;;16.26;47.81
79250;BME280;68679;51.030;7.584;2023-05-29T00:03:34;99303.31;;;16.23;48.06
79250;BME280;68679;51.030;7.584;2023-05-29T00:06:02;99312.44;;;16.17;47.91
79250;BME280;68679;51.030;7.584;2023-05-29T00:08:28;99311.97;;;16.15;48.03
79250;BME280;68679;51.030;7.584;2023-05-29T00:10:53;99314.06;;;16.04;48.19
79250;BME280;68679;51.030;7.584;2023-05-29T00:13:19;99315.72;;;16.00;48.17
79250;BME280;68679;51.030;7.584;2023-05-29T00:15:44;99316.94;;;15.94;48.49
79250;BME280;68679;51.030;7.584;2023-05-29T00:18:09;99313.81;;;15.92;48.31
79250;BME280;68679;51.030;7.584;2023-05-29T00:20:35;99308.94;;;15.85;48.63
79250;BME280;68679;51.030;7.584;2023-05-29T00:23:01;99309.81;;;15.80;48.80
79250;BME280;68679;51.030;7.584;2023-05-29T00:25:31;99320.81;;;15.74;48.74
79250;BME280;68679;51.030;7.584;2023-05-29T00:27:56;99314.53;;;15.70;48.68
79250;BME280;68679;51.030;7.584;2023-05-29T00:30:22;99306.44;;;15.66;48.78
79250;BME280;68679;51.030;7.584;2023-05-29T00:32:47;99315.22;;;15.62;49.11
79250;BME280;68679;51.030;7.584;2023-05-29T00:35:12;99313.94;;;15.59;49.21
79250;BME280;68679;51.030;7.584;2023-05-29T00:37:38;99314.84;;;15.54;49.11
79250;BME280;68679;51.030;7.584;2023-05-29T00:40:03;99314.94;;;15.49;49.05
79250;BME280;68679;51.030;7.584;2023-05-29T00:42:29;99321.41;;;15.43;49.46
79250;BME280;68679;51.030;7.584;2023-05-29T00:44:54;99318.28;;;15.41;49.33
79250;BME280;68679;51.030;7.584;2023-05-29T00:47:20;99315.16;;;15.39;49.55
79250;BME280;68679;51.030;7.584;2023-05-29T00:49:45;99315.53;;;15.33;49.58
79250;BME280;68679;51.030;7.584;2023-05-29T00:52:11;99316.16;;;15.29;49.80
79250;BME280;68679;51.030;7.584;2023-05-29T00:54:37;99315.94;;;15.26;49.94
79250;BME280;68679;51.030;7.584;2023-05-29T00:57:04;99324.56;;;15.18;49.96
79250;BME280;68679;51.030;7.584;2023-05-29T00:59:32;99315.97;;;15.12;49.70
79250;BME280;68679;51.030;7.584;2023-05-29T01:01:58;99315.75;;;15.09;49.82
79250;BME280;68679;51.030;7.584;2023-05-29T01:04:25;99319.00;;;15.06;50.04
79250;BME280;68679;51.030;7.584;2023-05-29T01:06:51;99320.94;;;15.00;50.61
79250;BME280;68679;51.030;7.584;2023-05-29T01:09:16;99316.53;;;14.95;50.50
79250;BME280;68679;51.030;7.584;2023-05-29T01:11:58;99327.19;;;14.90;50.35
79250;BME280;68679;51.030;7.584;2023-05-29T01:14:52;99319.84;;;14.87;50.47
79250;BME280;68679;51.030;7.584;2023-05-29T01:17:32;99324.16;;;14.83;50.84
79250;BME280;68679;51.030;7.584;2023-05-29T01:20:23;99326.09;;;14.78;50.91
79250;BME280;68679;51.030;7.584;2023-05-29T01:23:47;99330.38;;;14.73;51.18
79250;BME280;68679;51.030;7.584;2023-05-29T01:28:56;99320.78;;;14.64;50.69
79250;BME280;68679;51.030;7.584;2023-05-29T01:31:25;99311.31;;;14.63;50.68
79250;BME280;68679;51.030;7.584;2023-05-29T01:33:55;99319.00;;;14.59;50.63
79250;BME280;68679;51.030;7.584;2023-05-29T01:36:21;99316.75;;;14.53;51.33
79250;BME280;68679;51.030;7.584;2023-05-29T01:38:48;99315.28;;;14.46;51.29
79250;BME280;68679;51.030;7.584;2023-05-29T01:41:15;99323.25;;;14.41;51.16
79250;BME280;68679;51.030;7.584;2023-05-29T01:43:43;99318.75;;;14.42;51.12
79250;BME280;68679;51.030;7.584;2023-05-29T01:46:09;99313.06;;;14.35;51.49
79250;BME280;68679;51.030;7.584;2023-05-29T01:48:34;99322.59;;;14.31;51.20
79250;BME280;68679;51.030;7.584;2023-05-29T01:51:00;99334.13;;;14.21;51.83
79250;BME280;68679;51.030;7.584;2023-05-29T01:53:26;99322.66;;;13.93;54.65
79250;BME280;68679;51.030;7.584;2023-05-29T01:55:51;99321.31;;;13.95;54.52
79250;BME280;68679;51.030;7.584;2023-05-29T01:58:17;99325.28;;;13.93;55.48
79250;BME280;68679;51.030;7.584;2023-05-29T02:00:43;99330.41;;;14.03;55.39
79250;BME280;68679;51.030;7.584;2023-05-29T02:03:08;99331.63;;;13.92;55.86
79250;BME280;68679;51.030;7.584;2023-05-29T02:05:34;99332.78;;;13.86;56.65
79250;BME280;68679;51.030;7.584;2023-05-29T02:07:59;99330.41;;;14.03;55.08
79250;BME280;68679;51.030;7.584;2023-05-29T02:10:24;99334.69;;;14.18;53.55
79250;BME280;68679;51.030;7.584;2023-05-29T02:12:50;99337.91;;;14.15;53.46
79250;BME280;68679;51.030;7.584;2023-05-29T02:15:15;99346.09;;;13.94;54.82
79250;BME280;68679;51.030;7.584;2023-05-29T02:17:41;99335.34;;;14.10;53.46
79250;BME280;68679;51.030;7.584;2023-05-29T02:20:07;99342.75;;;14.08;53.87
79250;BME280;68679;51.030;7.584;2023-05-29T02:22:32;99348.72;;;13.94;54.16
79250;BME280;68679;51.030;7.584;2023-05-29T02:24:57;99342.41;;;14.14;52.58
79250;BME280;68679;51.030;7.584;2023-05-29T02:27:23;99343.53;;;14.08;53.09
79250;BME280;68679;51.030;7.584;2023-05-29T02:29:48;99349.38;;;14.05;52.79
79250;BME280;68679;51.030;7.584;2023-05-29T02:32:13;99350.44;;;14.04;52.73
79250;BME280;68679;51.030;7.584;2023-05-29T02:34:38;99344.88;;;14.06;52.46
79250;BME280;68679;51.030;7.584;2023-05-29T02:37:04;99356.06;;;13.98;52.38
79250;BME280;68679;51.030;7.584;2023-05-29T02:39:29;99362.41;;;13.78;53.73
79250;BME280;68679;51.030;7.584;2023-05-29T02:41:54;99367.84;;;13.62;55.77
79250;BME280;68679;51.030;7.584;2023-05-29T02:44:20;99369.63;;;13.48;56.62
79250;BME280;68679;51.030;7.584;2023-05-29T02:46:45;99369.03;;;13.51;56.53
79250;BME280;68679;51.030;7.584;2023-05-29T02:49:10;99376.16;;;13.51;56.27
79250;BME280;68679;51.030;7.584;2023-05-29T02:51:36;99369.97;;;13.41;57.23
79250;BME280;68679;51.030;7.584;2023-05-29T02:54:02;99368.94;;;13.61;56.25
79250;BME280;68679;51.030;7.584;2023-05-29T02:56:27;99369.66;;;13.67;55.53
79250;BME280;68679;51.030;7.584;2023-05-29T02:58:53;99368.16;;;13.61;55.64
79250;BME280;68679;51.030;7.584;2023-05-29T03:01:19;99373.19;;;13.57;55.52
79250;BME280;68679;51.030;7.584;2023-05-29T03:03:44;99372.75;;;13.50;55.49
79250;BME280;68679;51.030;7.584;2023-05-29T03:06:10;99381.09;;;13.57;55.18
79250;BME280;68679;51.030;7.584;2023-05-29T03:08:37;99373.53;;;13.51;55.27
79250;BME280;68679;51.030;7.584;2023-05-29T03:11:07;99371.91;;;13.55;54.66
79250;BME280;68679;51.030;7.584;2023-05-29T03:13:34;99372.81;;;13.45;55.23
79250;BME280;68679;51.030;7.584;2023-05-29T03:15:59;99377.47;;;13.29;55.94
79250;BME280;68679;51.030;7.584;2023-05-29T03:18:24;99379.44;;;13.43;55.15
79250;BME280;68679;51.030;7.584;2023-05-29T03:20:50;99371.56;;;13.37;55.44
79250;BME280;68679;51.030;7.584;2023-05-29T03:23:15;99374.16;;;13.43;54.54
79250;BME280;68679;51.030;7.584;2023-05-29T03:25:40;99376.50;;;13.44;54.61
79250;BME280;68679;51.030;7.584;2023-05-29T03:28:06;99383.13;;;13.41;54.06
79250;BME280;68679;51.030;7.584;2023-05-29T03:30:31;99390.50;;;13.39;54.34
79250;BME280;68679;51.030;7.584;2023-05-29T03:32:56;99387.88;;;13.39;54.32
79250;BME280;68679;51.030;7.584;2023-05-29T03:35:22;99390.13;;;13.27;55.26
79250;BME280;68679;51.030;7.584;2023-05-29T03:37:47;99391.47;;;13.25;54.65
79250;BME280;68679;51.030;7.584;2023-05-29T03:40:12;99388.00;;;13.29;54.58
79250;BME280;68679;51.030;7.584;2023-05-29T03:42:37;99388.50;;;13.31;54.10
79250;BME280;68679;51.030;7.584;2023-05-29T03:45:03;99386.69;;;13.27;54.39
79250;BME280;68679;51.030;7.584;2023-05-29T03:47:28;99394.59;;;13.27;54.04
79250;BME280;68679;51.030;7.584;2023-05-29T03:49:53;99393.31;;;13.24;54.33
79250;BME280;68679;51.030;7.584;2023-05-29T03:52:20;99392.00;;;13.22;54.42
79250;BME280;68679;51.030;7.584;2023-05-29T03:54:45;99389.41;;;13.17;54.49
79250;BME280;68679;51.030;7.584;2023-05-29T03:57:10;99389.41;;;13.17;54.22
79250;BME280;68679;51.030;7.584;2023-05-29T03:59:36;99401.31;;;13.09;54.59
79250;BME280;68679;51.030;7.584;2023-05-29T04:02:01;99398.69;;;13.09;54.41
79250;BME280;68679;51.030;7.584;2023-05-29T04:04:27;99393.16;;;13.10;54.47
79250;BME280;68679;51.030;7.584;2023-05-29T04:06:52;99404.75;;;13.09;54.38
79250;BME280;68679;51.030;7.584;2023-05-29T04:09:18;99396.84;;;13.09;54.46
79250;BME280;68679;51.030;7.584;2023-05-29T04:11:43;99396.06;;;13.09;54.36
79250;BME280;68679;51.030;7.584;2023-05-29T04:14:09;99397.56;;;12.86;55.67
79250;BME280;68679;51.030;7.584;2023-05-29T04:16:35;99405.34;;;13.01;54.83
79250;BME280;68679;51.030;7.584;2023-05-29T04:19:00;99407.44;;;13.04;54.50
79250;BME280;68679;51.030;7.584;2023-05-29T04:21:25;99408.47;;;13.03;55.01
79250;BME280;68679;51.030;7.584;2023-05-29T04:23:52;99414.81;;;13.02;54.90
79250;BME280;68679;51.030;7.584;2023-05-29T04:26:17;99420.31;;;13.06;54.86
79250;BME280;68679;51.030;7.584;2023-05-29T04:28:43;99409.25;;;13.04;54.60
79250;BME280;68679;51.030;7.584;2023-05-29T04:31:08;99413.53;;;13.00;55.25
79250;BME280;68679;51.030;7.584;2023-05-29T04:33:39;99417.78;;;12.96;55.76
79250;BME280;68679;51.030;7.584;2023-05-29T04:36:05;99413.63;;;12.89;55.97
79250;BME280;68679;51.030;7.584;2023-05-29T04:38:30;99419.16;;;12.88;56.31
79250;BME280;68679;51.030;7.584;2023-05-29T04:40:56;99421.19;;;12.96;55.58
79250;BME280;68679;51.030;7.584;2023-05-29T04:43:23;99412.53;;;12.91;56.10
79250;BME280;68679;51.030;7.584;2023-05-29T04:45:51;99425.53;;;12.82;57.22
79250;BME280;68679;51.030;7.584;2023-05-29T04:48:17;99419.16;;;12.88;56.53
79250;BME280;68679;51.030;7.584;2023-05-29T04:50:42;99420.69;;;12.94;56.29
79250;BME280;68679;51.030;7.584;2023-05-29T04:53:09;99423.84;;;12.91;56.61
79250;BME280;68679;51.030;7.584;2023-05-29T04:55:35;99424.88;;;12.95;56.27
79250;BME280;68679;51.030;7.584;2023-05-29T04:58:01;99433.03;;;12.99;56.11
79250;BME280;68679;51.030;7.584;2023-05-29T05:00:27;99438.84;;;12.96;56.01
79250;BME280;68679;51.030;7.584;2023-05-29T05:02:52;99437.47;;;12.98;56.14
79250;BME280;68679;51.030;7.584;2023-05-29T05:05:17;99434.06;;;12.98;56.02
79250;BME280;68679;51.030;7.584;2023-05-29T05:07:42;99434.34;;;12.96;56.22
79250;BME280;68679;51.030;7.584;2023-05-29T05:10:08;99441.78;;;12.89;56.87
79250;BME280;68679;51.030;7.584;2023-05-29T05:12:33;99439.66;;;12.91;57.30
79250;BME280;68679;51.030;7.584;2023-05-29T05:14:59;99442.28;;;12.91;56.80
79250;BME280;68679;51.030;7.584;2023-05-29T05:17:24;99443.84;;;12.92;56.91
79250;BME280;68679;51.030;7.584;2023-05-29T05:19:49;99445.97;;;12.90;57.71
79250;BME280;68679;51.030;7.584;2023-05-29T05:22:15;99442.19;;;13.01;56.84
79250;BME280;68679;51.030;7.584;2023-05-29T05:24:41;99449.97;;;12.87;58.10
79250;BME280;68679;51.030;7.584;2023-05-29T05:27:06;99441.31;;;12.82;58.69
79250;BME280;68679;51.030;7.584;2023-05-29T05:29:32;99450.84;;;12.73;59.82
79250;BME280;68679;51.030;7.584;2023-05-29T05:31:57;99447.97;;;12.74;59.86
79250;BME280;68679;51.030;7.584;2023-05-29T05:34:22;99441.31;;;12.82;59.07
79250;BME280;68679;51.030;7.584;2023-05-29T05:36:47;99445.97;;;12.90;58.92
79250;BME280;68679;51.030;7.584;2023-05-29T05:39:14;99447.13;;;12.79;59.72
79250;BME280;68679;51.030;7.584;2023-05-29T05:41:39;99454.13;;;12.94;58.43
79250;BME280;68679;51.030;7.584;2023-05-29T05:44:04;99447.00;;;12.94;58.77
79250;BME280;68679;51.030;7.584;2023-05-29T05:46:30;99449.31;;;13.01;58.70
79250;BME280;68679;51.030;7.584;2023-05-29T05:48:56;99443.72;;;13.07;58.14
79250;BME280;68679;51.030;7.584;2023-05-29T05:51:26;99453.22;;;13.03;59.21
79250;BME280;68679;51.030;7.584;2023-05-29T05:53:51;99460.38;;;12.98;59.66
79250;BME280;68679;51.030;7.584;2023-05-29T05:56:17;99455.88;;;13.03;59.08
79250;BME280;68679;51.030;7.584;2023-05-29T05:58:42;99459.09;;;12.95;60.36
79250;BME280;68679;51.030;7.584;2023-05-29T06:01:08;99455.53;;;13.10;60.10
79250;BME280;68679;51.030;7.584;2023-05-29T06:03:33;99462.31;;;13.21;59.58
79250;BME280;68679;51.030;7.584;2023-05-29T06:05:59;99460.69;;;13.30;60.00
79250;BME280;68679;51.030;7.584;2023-05-29T06:08:24;99464.25;;;13.39;59.74
79250;BME280;68679;51.030;7.584;2023-05-29T06:10:50;99470.50;;;13.49;60.18
79250;BME280;68679;51.030;7.584;2023-05-29T06:13:15;99477.75;;;13.62;59.84
79250;BME280;68679;51.030;7.584;2023-05-29T06:15:42;99474.50;;;13.70;60.31
79250;BME280;68679;51.030;7.584;2023-05-29T06:18:08;99480.53;;;13.71;59.29
79250;BME280;68679;51.030;7.584;2023-05-29T06:20:33;99472.53;;;13.81;59.27
79250;BME280;68679;51.030;7.584;2023-05-29T06:22:58;99473.31;;;13.81;59.34
79250;BME280;68679;51.030;7.584;2023-05-29T06:25:24;99474.22;;;13.95;58.93
79250;BME280;68679;51.030;7.584;2023-05-29T06:27:57;99474.66;;;14.03;57.79
79250;BME280;68679;51.030;7.584;2023-05-29T06:30:23;99471.00;;;13.99;58.61
79250;BME280;68679;51.030;7.584;2023-05-29T06:32:48;99479.22;;;13.97;58.70
79250;BME280;68679;51.030;7.584;2023-05-29T06:35:13;99476.28;;;13.99;57.97
79250;BME280;68679;51.030;7.584;2023-05-29T06:37:38;99478.50;;;14.10;57.71
79250;BME280;68679;51.030;7.584;2023-05-29T06:40:04;99482.78;;;14.06;57.91
79250;BME280;68679;51.030;7.584;2023-05-29T06:42:30;99482.56;;;14.03;57.98
79250;BME280;68679;51.030;7.584;2023-05-29T06:44:55;99485.78;;;14.18;58.30
79250;BME280;68679;51.030;7.584;2023-05-29T06:47:20;99486.31;;;14.20;57.00
79250;BME280;68679;51.030;7.584;2023-05-29T06:49:45;99486.50;;;14.24;57.97
79250;BME280;68679;51.030;7.584;2023-05-29T06:52:11;99483.25;;;14.32;57.41
79250;BME280;68679;51.030;7.584;2023-05-29T06:54:36;99486.31;;;14.39;57.71
79250;BME280;68679;51.030;7.584;2023-05-29T06:57:01;99492.28;;;14.50;56.81
79250;BME280;68679;51.030;7.584;2023-05-29T06:59:26;99490.06;;;14.57;56.53
79250;BME280;68679;51.030;7.584;2023-05-29T07:01:52;99488.34;;;14.66;56.13
79250;BME280;68679;51.030;7.584;2023-05-29T07:04:17;99492.41;;;14.78;55.72
79250;BME280;68679;51.030;7.584;2023-05-29T07:06:42;99487.84;;;14.83;54.83
79250;BME280;68679;51.030;7.584;2023-05-29T07:09:07;99491.66;;;14.91;54.18
79250;BME280;68679;51.030;7.584;2023-05-29T07:11:33;99491.53;;;15.01;53.85
79250;BME280;68679;51.030;7.584;2023-05-29T07:13:58;99490.84;;;15.09;53.49
79250;BME280;68679;51.030;7.584;2023-05-29T07:16:24;99490.69;;;15.19;53.10
79250;BME280;68679;51.030;7.584;2023-05-29T07:18:49;99487.69;;;15.26;52.84
79250;BME280;68679;51.030;7.584;2023-05-29T07:21:16;99488.69;;;15.30;52.34
79250;BME280;68679;51.030;7.584;2023-05-29T07:23:41;99484.66;;;15.33;52.78
79250;BME280;68679;51.030;7.584;2023-05-29T07:26:07;99495.13;;;15.38;52.53
79250;BME280;68679;51.030;7.584;2023-05-29T07:28:32;99492.13;;;15.44;52.88
79250;BME280;68679;51.030;7.584;2023-05-29T07:30:57;99496.53;;;15.49;52.48
79250;BME280;68679;51.030;7.584;2023-05-29T07:33:23;99495.38;;;15.55;52.50
79250;BME280;68679;51.030;7.584;2023-05-29T07:35:48;99496.84;;;15.61;52.32
79250;BME280;68679;51.030;7.584;2023-05-29T07:38:14;99495.22;;;15.65;52.02
79250;BME280;68679;51.030;7.584;2023-05-29T07:40:39;99503.03;;;15.70;51.96
79250;BME280;68679;51.030;7.584;2023-05-29T07:43:04;99501.88;;;15.76;51.60
79250;BME280;68679;51.030;7.584;2023-05-29T07:45:30;99505.97;;;15.82;51.51
79250;BME280;68679;51.030;7.584;2023-05-29T07:47:55;99513.81;;;15.88;51.20
79250;BME280;68679;51.030;7.584;2023-05-29T07:50:21;99517.47;;;15.92;51.26
79250;BME280;68679;51.030;7.584;2023-05-29T07:52:46;99512.25;;;16.00;50.73
79250;BME280;68679;51.030;7.584;2023-05-29T07:55:11;99518.22;;;16.06;50.81
79250;BME280;68679;51.030;7.584;2023-05-29T07:57:36;99515.88;;;16.04;51.08
79250;BME280;68679;51.030;7.584;2023-05-29T08:00:02;99508.53;;;16.01;51.52
79250;BME280;68679;51.030;7.584;2023-05-29T08:02:33;99517.28;;;16.02;51.65
79250;BME280;68679;51.030;7.584;2023-05-29T08:04:58;99514.50;;;16.07;51.54
79250;BME280;68679;51.030;7.584;2023-05-29T08:07:24;99508.22;;;16.17;51.18
79250;BME280;68679;51.030;7.584;2023-05-29T08:09:49;99509.91;;;16.26;50.94
79250;BME280;68679;51.030;7.584;2023-05-29T08:12:14;99514.38;;;16.26;51.43
79250;BME280;68679;51.030;7.584;2023-05-29T08:14:40;99518.22;;;16.33;51.18
79250;BME280;68679;51.030;7.584;2023-05-29T08:17:05;99513.66;;;16.48;51.02
79250;BME280;68679;51.030;7.584;2023-05-29T08:19:31;99502.97;;;16.53;50.81
79250;BME280;68679;51.030;7.584;2023-05-29T08:21:56;99506.34;;;16.67;50.60
79250;BME280;68679;51.030;7.584;2023-05-29T08:24:22;99511.75;;;16.76;50.39
79250;BME280;68679;51.030;7.584;2023-05-29T08:26:47;99509.84;;;16.90;50.38
79250;BME280;68679;51.030;7.584;2023-05-29T08:29:12;99508.03;;;16.99;49.96
79250;BME280;68679;51.030;7.584;2023-05-29T08:31:37;99502.78;;;17.08;49.82
79250;BME280;68679;51.030;7.584;2023-05-29T08:34:03;99499.59;;;17.20;49.56
79250;BME280;68679;51.030;7.584;2023-05-29T08:36:28;99503.88;;;17.29;49.28
79250;BME280;68679;51.030;7.584;2023-05-29T08:38:53;99505.00;;;17.37;49.63
79250;BME280;68679;51.030;7.584;2023-05-29T08:41:28;99506.47;;;17.52;49.04
79250;BME280;68679;51.030;7.584;2023-05-29T08:43:59;99511.38;;;17.67;49.00
79250;BME280;68679;51.030;7.584;2023-05-29T08:46:26;99508.97;;;17.79;48.64
79250;BME280;68679;51.030;7.584;2023-05-29T08:48:53;99507.09;;;17.88;48.61
79250;BME280;68679;51.030;7.584;2023-05-29T08:51:23;99504.19;;;17.99;48.56
79250;BME280;68679;51.030;7.584;2023-05-29T08:53:54;99508.44;;;18.08;48.44
79250;BME280;68679;51.030;7.584;2023-05-29T08:56:21;99517.47;;;18.07;48.84
79250;BME280;68679;51.030;7.584;2023-05-29T08:58:47;99509.53;;;18.25;48.35
79250;BME280;68679;51.030;7.584;2023-05-29T09:01:14;99511.28;;;18.29;48.01
79250;BME280;68679;51.030;7.584;2023-05-29T09:03:39;99510.22;;;18.39;48.49
79250;BME280;68679;51.030;7.584;2023-05-29T09:06:07;99507.88;;;18.55;47.81
79250;BME280;68679;51.030;7.584;2023-05-29T09:08:34;99499.44;;;18.61;47.90
79250;BME280;68679;51.030;7.584;2023-05-29T09:10:59;99499.59;;;18.47;48.40
79250;BME280;68679;51.030;7.584;2023-05-29T09:13:24;99503.50;;;18.59;48.27
79250;BME280;68679;51.030;7.584;2023-05-29T09:15:49;99506.97;;;18.77;48.03
79250;BME280;68679;51.030;7.584;2023-05-29T09:18:16;99502.44;;;18.77;47.94
79250;BME280;68679;51.030;7.584;2023-05-29T09:20:42;99512.44;;;18.80;48.20
79250;BME280;68679;51.030;7.584;2023-05-29T09:23:09;99509.47;;;18.90;48.28
79250;BME280;68679;51.030;7.584;2023-05-29T09:25:39;99503.53;;;18.93;47.50
79250;BME280;68679;51.030;7.584;2023-05-29T09:28:06;99506.63;;;18.87;48.05
79250;BME280;68679;51.030;7.584;2023-05-29T09:30:46;99506.81;;;18.90;48.05
79250;BME280;68679;51.030;7.584;2023-05-29T09:33:15;99509.91;;;18.92;48.07
79250;BME280;68679;51.030;7.584;2023-05-29T09:38:19;99505.69;;;19.09;47.81
79250;BME280;68679;51.030;7.584;2023-05-29T09:40:45;99507.38;;;19.22;47.97
79250;BME280;68679;51.030;7.584;2023-05-29T09:43:14;99505.19;;;19.15;47.33
79250;BME280;68679;51.030;7.584;2023-05-29T09:45:46;99504.38;;;19.32;47.10
79250;BME280;68679;51.030;7.584;2023-05-29T09:48:17;99510.94;;;19.35;47.50
79250;BME280;68679;51.030;7.584;2023-05-29T09:50:44;99501.28;;;19.30;46.91
79250;BME280;68679;51.030;7.584;2023-05-29T09:53:25;99502.16;;;19.60;47.55
79250;BME280;68679;51.030;7.584;2023-05-29T09:55:51;99506.19;;;19.66;47.38
79250;BME280;68679;51.030;7.584;2023-05-29T09:58:21;99506.66;;;19.51;46.67
79250;BME280;68679;51.030;7.584;2023-05-29T10:00:47;99509.59;;;19.75;47.43
79250;BME280;68679;51.030;7.584;2023-05-29T10:03:13;99509.09;;;19.82;46.52
79250;BME280;68679;51.030;7.584;2023-05-29T10:05:40;99520.88;;;20.02;46.83
79250;BME280;68679;51.030;7.584;2023-05-29T10:08:08;99510.97;;;19.81;46.43
79250;BME280;68679;51.030;7.584;2023-05-29T10:10:36;99509.84;;;19.82;46.57
79250;BME280;68679;51.030;7.584;2023-05-29T10:13:05;99509.47;;;19.72;46.72
79250;BME280;68679;51.030;7.584;2023-05-29T10:15:32;99507.47;;;19.90;46.85
79250;BME280;68679;51.030;7.584;2023-05-29T10:18:08;99510.72;;;19.95;46.51
79250;BME280;68679;51.030;7.584;2023-05-29T10:20:38;99516.38;;;19.94;46.02
79250;BME280;68679;51.030;7.584;2023-05-29T10:23:04;99510.94;;;19.90;46.42
79250;BME280;68679;51.030;7.584;2023-05-29T10:25:31;99516.22;;;19.99;46.67
79250;BME280;68679;51.030;7.584;2023-05-29T10:27:57;99527.78;;;20.03;46.06
79250;BME280;68679;51.030;7.584;2023-05-29T10:30:54;99522.75;;;20.01;46.36
79250;BME280;68679;51.030;7.584;2023-05-29T10:33:33;99517.72;;;20.08;46.55
79250;BME280;68679;51.030;7.584;2023-05-29T10:36:19;99518.97;;;20.32;46.06
79250;BME280;68679;51.030;7.584;2023-05-29T10:38:48;99513.34;;;20.33;46.08
79250;BME280;68679;51.030;7.584;2023-05-29T10:43:58;99522.56;;;20.15;46.05
79250;BME280;68679;51.030;7.584;2023-05-29T10:49:18;99515.44;;;20.49;46.02
79250;BME280;68679;51.030;7.584;2023-05-29T10:51:43;99525.28;;;20.57;45.56
79250;BME280;68679;51.030;7.584;2023-05-29T10:54:09;99519.38;;;20.43;45.78
79250;BME280;68679;51.030;7.584;2023-05-29T10:56:35;99512.94;;;20.44;45.42
79250;BME280;68679;51.030;7.584;2023-05-29T10:59:01;99522.94;;;20.55;45.72
79250;BME280;68679;51.030;7.584;2023-05-29T11:01:29;99516.22;;;20.49;46.01
79250;BME280;68679;51.030;7.584;2023-05-29T11:06:41;99521.78;;;20.65;45.56
79250;BME280;68679;51.030;7.584;2023-05-29T11:09:26;99520.13;;;20.73;46.07
79250;BME280;68679;51.030;7.584;2023-05-29T11:12:14;99514.81;;;20.73;45.16
79250;BME280;68679;51.030;7.584;2023-05-29T11:14:48;99517.22;;;20.66;45.60
79250;BME280;68679;51.030;7.584;2023-05-29T11:20:03;99505.75;;;20.86;45.68
79250;BME280;68679;51.030;7.584;2023-05-29T11:25:15;99511.06;;;21.07;45.08
79250;BME280;68679;51.030;7.584;2023-05-29T11:27:43;99503.94;;;21.11;45.90
79250;BME280;68679;51.030;7.584;2023-05-29T11:30:09;99505.34;;;20.96;45.83
79250;BME280;68679;51.030;7.584;2023-05-29T11:32:36;99501.19;;;21.20;45.96
79250;BME280;68679;51.030;7.584;2023-05-29T11:35:07;99512.25;;;21.30;45.77
79250;BME280;68679;51.030;7.584;2023-05-29T11:37:34;99508.84;;;21.42;45.62
79250;BME280;68679;51.030;7.584;2023-05-29T11:40:03;99509.25;;;21.32;45.13
79250;BME280;68679;51.030;7.584;2023-05-29T11:42:30;99496.69;;;21.32;45.34
79250;BME280;68679;51.030;7.584;2023-05-29T11:45:12;99506.81;;;21.39;45.01
79250;BME280;68679;51.030;7.584;2023-05-29T11:47:57;99500.00;;;21.29;45.55
79250;BME280;68679;51.030;7.584;2023-05-29T11:50:24;99498.63;;;21.56;45.09
79250;BME280;68679;51.030;7.584;2023-05-29T11:52:50;99496.50;;;21.50;45.31
79250;BME280;68679;51.030;7.584;2023-05-29T11:55:18;99494.19;;;21.48;44.64
79250;BME280;68679;51.030;7.584;2023-05-29T11:57:44;99497.81;;;21.31;44.20
79250;BME280;68679;51.030;7.584;2023-05-29T12:00:13;99502.03;;;21.32;45.06
79250;BME280;68679;51.030;7.584;2023-05-29T12:02:38;99493.59;;;21.42;44.50
79250;BME280;68679;51.030;7.584;2023-05-29T12:05:05;99487.72;;;21.37;44.35
79250;BME280;68679;51.030;7.584;2023-05-29T12:07:33;99489.34;;;21.29;43.90
79250;BME280;68679;51.030;7.584;2023-05-29T12:10:12;99487.31;;;21.26;44.34
79250;BME280;68679;51.030;7.584;2023-05-29T12:12:39;99479.56;;;21.33;43.70
79250;BME280;68679;51.030;7.584;2023-05-29T12:15:06;99481.47;;;21.45;44.61
79250;BME280;68679;51.030;7.584;2023-05-29T12:17:32;99496.69;;;21.32;43.58
79250;BME280;68679;51.030;7.584;2023-05-29T12:19:58;99482.16;;;21.42;44.44
79250;BME280;68679;51.030;7.584;2023-05-29T12:22:33;99471.16;;;21.68;44.24
79250;BME280;68679;51.030;7.584;2023-05-29T12:27:32;99488.50;;;21.62;43.83
79250;BME280;68679;51.030;7.584;2023-05-29T12:30:02;99483.16;;;21.62;43.55
79250;BME280;68679;51.030;7.584;2023-05-29T12:32:38;99480.94;;;21.64;43.74
79250;BME280;68679;51.030;7.584;2023-05-29T12:37:35;99478.38;;;21.92;43.95
79250;BME280;68679;51.030;7.584;2023-05-29T12:40:32;99480.84;;;21.97;43.43
79250;BME280;68679;51.030;7.584;2023-05-29T12:43:01;99479.16;;;21.80;44.08
79250;BME280;68679;51.030;7.584;2023-05-29T12:45:32;99481.41;;;21.78;42.75
79250;BME280;68679;51.030;7.584;2023-05-29T12:48:00;99491.41;;;21.69;43.39
79250;BME280;68679;51.030;7.584;2023-05-29T12:50:33;99489.50;;;21.82;43.24
79250;BME280;68679;51.030;7.584;2023-05-29T12:53:12;99487.19;;;21.68;43.16
79250;BME280;68679;51.030;7.584;2023-05-29T12:55:40;99482.97;;;21.67;42.10
79250;BME280;68679;51.030;7.584;2023-05-29T12:58:07;99482.84;;;21.63;42.62
79250;BME280;68679;51.030;7.584;2023-05-29T13:00:38;99483.94;;;21.62;42.90
79250;BME280;68679;51.030;7.584;2023-05-29T13:03:04;99482.19;;;21.66;42.18
79250;BME280;68679;51.030;7.584;2023-05-29T13:05:30;99490.06;;;21.75;42.79
79250;BME280;68679;51.030;7.584;2023-05-29T13:07:56;99484.84;;;21.79;42.14
79250;BME280;68679;51.030;7.584;2023-05-29T13:10:22;99487.81;;;21.77;43.23
79250;BME280;68679;51.030;7.584;2023-05-29T13:12:48;99497.72;;;22.01;42.92
79250;BME280;68679;51.030;7.584;2023-05-29T13:15:19;99503.41;;;22.00;42.94
79250;BME280;68679;51.030;7.584;2023-05-29T13:17:44;99496.28;;;22.04;43.24
79250;BME280;68679;51.030;7.584;2023-05-29T13:20:11;99491.94;;;21.99;42.90
79250;BME280;68679;51.030;7.584;2023-05-29T13:22:41;99499.19;;;21.99;43.10
79250;BME280;68679;51.030;7.584;2023-05-29T13:25:09;99498.63;;;22.05;42.68